Terminal Aerodrome Forecast
Issued by NWS Kansas City/Pleasant Hill, MO

Home | Current Version | Previous Version | Text Only | Print | Product List | Glossary On
Versions: 1 2 3 4 5 6 7 8 9 10 11 12 13 14 15 16 17 18 19 20 21
000
FTUS43 KEAX 230050 AAA
TAFMCI
TAF AMD
KMCI 230050Z 2301/2324 12010KT 2SM -DZ BR OVC002
      TEMPO 2301/2303 -FZRA
     FM230600 VRB04KT 1SM BR OVC003
     FM231700 VRB05KT P6SM SCT008 OVC012
     FM232100 VRB03KT P6SM SCT045=

USA.gov is the U.S. government's official web portal to all federal, state and local government web resources and services.